sensor_id;sensor_type;location;lat;lon;timestamp;P1;durP1;ratioP1;P2;durP2;ratioP2
16254;SDS011;8235;52.198;9.904;2023-04-03T00:01:17;5.13;;;1.57;;
16254;SDS011;8235;52.198;9.904;2023-04-03T00:03:43;3.93;;;1.20;;
16254;SDS011;8235;52.198;9.904;2023-04-03T00:06:11;2.57;;;1.43;;
16254;SDS011;8235;52.198;9.904;2023-04-03T00:08:38;4.77;;;1.50;;
16254;SDS011;8235;52.198;9.904;2023-04-03T00:11:05;1.77;;;0.90;;
16254;SDS011;8235;52.198;9.904;2023-04-03T00:13:33;15.90;;;2.67;;
16254;SDS011;8235;52.198;9.904;2023-04-03T00:16:00;5.00;;;1.47;;
16254;SDS011;8235;52.198;9.904;2023-04-03T00:18:29;5.30;;;1.33;;
16254;SDS011;8235;52.198;9.904;2023-04-03T00:20:56;4.67;;;1.80;;
16254;SDS011;8235;52.198;9.904;2023-04-03T00:23:23;5.53;;;1.40;;
16254;SDS011;8235;52.198;9.904;2023-04-03T00:25:50;3.63;;;1.03;;
16254;SDS011;8235;52.198;9.904;2023-04-03T00:28:16;2.83;;;1.17;;
16254;SDS011;8235;52.198;9.904;2023-04-03T00:30:43;3.77;;;1.20;;
16254;SDS011;8235;52.198;9.904;2023-04-03T00:33:10;2.80;;;1.23;;
16254;SDS011;8235;52.198;9.904;2023-04-03T00:35:39;2.67;;;0.93;;
16254;SDS011;8235;52.198;9.904;2023-04-03T00:38:06;4.70;;;1.47;;
16254;SDS011;8235;52.198;9.904;2023-04-03T00:40:39;2.73;;;1.10;;
16254;SDS011;8235;52.198;9.904;2023-04-03T00:43:10;3.20;;;1.43;;
16254;SDS011;8235;52.198;9.904;2023-04-03T00:45:40;2.40;;;1.30;;
16254;SDS011;8235;52.198;9.904;2023-04-03T00:48:09;4.07;;;1.37;;
16254;SDS011;8235;52.198;9.904;2023-04-03T00:50:41;3.30;;;1.10;;
16254;SDS011;8235;52.198;9.904;2023-04-03T00:53:10;3.70;;;1.13;;
16254;SDS011;8235;52.198;9.904;2023-04-03T00:55:40;3.73;;;1.50;;
16254;SDS011;8235;52.198;9.904;2023-04-03T00:58:07;3.40;;;1.23;;
16254;SDS011;8235;52.198;9.904;2023-04-03T01:00:35;2.90;;;1.33;;
16254;SDS011;8235;52.198;9.904;2023-04-03T01:03:04;3.57;;;1.43;;
16254;SDS011;8235;52.198;9.904;2023-04-03T01:05:31;4.40;;;1.17;;
16254;SDS011;8235;52.198;9.904;2023-04-03T01:07:59;4.30;;;1.30;;
16254;SDS011;8235;52.198;9.904;2023-04-03T01:10:27;2.47;;;1.23;;
16254;SDS011;8235;52.198;9.904;2023-04-03T01:12:53;2.83;;;1.40;;
16254;SDS011;8235;52.198;9.904;2023-04-03T01:15:21;1.93;;;1.40;;
16254;SDS011;8235;52.198;9.904;2023-04-03T01:17:49;3.77;;;1.80;;
16254;SDS011;8235;52.198;9.904;2023-04-03T01:20:24;6.33;;;1.47;;
16254;SDS011;8235;52.198;9.904;2023-04-03T01:23:36;4.70;;;1.30;;
16254;SDS011;8235;52.198;9.904;2023-04-03T01:26:11;3.33;;;1.50;;
16254;SDS011;8235;52.198;9.904;2023-04-03T01:28:38;6.80;;;1.67;;
16254;SDS011;8235;52.198;9.904;2023-04-03T01:31:07;3.83;;;1.93;;
16254;SDS011;8235;52.198;9.904;2023-04-03T01:33:42;3.90;;;1.60;;
16254;SDS011;8235;52.198;9.904;2023-04-03T01:36:13;5.27;;;1.83;;
16254;SDS011;8235;52.198;9.904;2023-04-03T01:38:42;3.97;;;1.57;;
16254;SDS011;8235;52.198;9.904;2023-04-03T01:41:08;5.20;;;1.57;;
16254;SDS011;8235;52.198;9.904;2023-04-03T01:43:35;4.20;;;1.47;;
16254;SDS011;8235;52.198;9.904;2023-04-03T01:46:02;3.03;;;1.33;;
16254;SDS011;8235;52.198;9.904;2023-04-03T01:48:28;4.17;;;1.40;;
16254;SDS011;8235;52.198;9.904;2023-04-03T01:50:56;4.60;;;1.33;;
16254;SDS011;8235;52.198;9.904;2023-04-03T01:53:23;2.93;;;1.03;;
16254;SDS011;8235;52.198;9.904;2023-04-03T01:55:49;3.13;;;1.20;;
16254;SDS011;8235;52.198;9.904;2023-04-03T01:58:16;3.17;;;1.30;;
16254;SDS011;8235;52.198;9.904;2023-04-03T02:00:42;3.13;;;1.23;;
16254;SDS011;8235;52.198;9.904;2023-04-03T02:03:09;5.03;;;1.60;;
16254;SDS011;8235;52.198;9.904;2023-04-03T02:05:35;9.13;;;1.70;;
16254;SDS011;8235;52.198;9.904;2023-04-03T02:08:04;4.33;;;1.30;;
16254;SDS011;8235;52.198;9.904;2023-04-03T02:10:30;3.97;;;1.10;;
16254;SDS011;8235;52.198;9.904;2023-04-03T02:12:57;3.20;;;1.70;;
16254;SDS011;8235;52.198;9.904;2023-04-03T02:15:24;4.33;;;1.20;;
16254;SDS011;8235;52.198;9.904;2023-04-03T02:17:51;6.20;;;1.17;;
16254;SDS011;8235;52.198;9.904;2023-04-03T02:20:18;3.23;;;1.33;;
16254;SDS011;8235;52.198;9.904;2023-04-03T02:22:45;3.03;;;1.30;;
16254;SDS011;8235;52.198;9.904;2023-04-03T02:25:14;1.63;;;1.27;;
16254;SDS011;8235;52.198;9.904;2023-04-03T02:27:42;5.73;;;1.50;;
16254;SDS011;8235;52.198;9.904;2023-04-03T02:30:09;3.13;;;1.03;;
16254;SDS011;8235;52.198;9.904;2023-04-03T02:32:36;2.67;;;1.23;;
16254;SDS011;8235;52.198;9.904;2023-04-03T02:35:03;2.60;;;1.63;;
16254;SDS011;8235;52.198;9.904;2023-04-03T02:37:31;3.23;;;1.20;;
16254;SDS011;8235;52.198;9.904;2023-04-03T02:39:57;4.70;;;1.60;;
16254;SDS011;8235;52.198;9.904;2023-04-03T02:42:25;4.67;;;1.27;;
16254;SDS011;8235;52.198;9.904;2023-04-03T02:44:52;3.03;;;1.40;;
16254;SDS011;8235;52.198;9.904;2023-04-03T02:47:18;4.87;;;1.77;;
16254;SDS011;8235;52.198;9.904;2023-04-03T02:49:45;3.63;;;1.23;;
16254;SDS011;8235;52.198;9.904;2023-04-03T02:52:11;3.20;;;1.10;;
16254;SDS011;8235;52.198;9.904;2023-04-03T02:54:38;3.97;;;1.20;;
16254;SDS011;8235;52.198;9.904;2023-04-03T02:57:05;5.60;;;1.57;;
16254;SDS011;8235;52.198;9.904;2023-04-03T02:59:35;3.17;;;1.10;;
16254;SDS011;8235;52.198;9.904;2023-04-03T03:02:01;4.83;;;1.50;;
16254;SDS011;8235;52.198;9.904;2023-04-03T03:04:28;4.03;;;1.27;;
16254;SDS011;8235;52.198;9.904;2023-04-03T03:06:54;2.97;;;1.23;;
16254;SDS011;8235;52.198;9.904;2023-04-03T03:09:21;2.67;;;0.97;;
16254;SDS011;8235;52.198;9.904;2023-04-03T03:11:48;5.30;;;1.60;;
16254;SDS011;8235;52.198;9.904;2023-04-03T03:14:14;4.50;;;1.70;;
16254;SDS011;8235;52.198;9.904;2023-04-03T03:16:42;1.63;;;1.17;;
16254;SDS011;8235;52.198;9.904;2023-04-03T03:19:09;2.93;;;1.40;;
16254;SDS011;8235;52.198;9.904;2023-04-03T03:21:36;5.37;;;1.57;;
16254;SDS011;8235;52.198;9.904;2023-04-03T03:24:03;4.43;;;1.43;;
16254;SDS011;8235;52.198;9.904;2023-04-03T03:26:30;4.63;;;1.50;;
16254;SDS011;8235;52.198;9.904;2023-04-03T03:28:56;2.40;;;1.00;;
16254;SDS011;8235;52.198;9.904;2023-04-03T03:31:23;3.23;;;1.60;;
16254;SDS011;8235;52.198;9.904;2023-04-03T03:33:50;6.17;;;1.47;;
16254;SDS011;8235;52.198;9.904;2023-04-03T03:36:17;4.53;;;1.43;;
16254;SDS011;8235;52.198;9.904;2023-04-03T03:38:43;3.93;;;1.40;;
16254;SDS011;8235;52.198;9.904;2023-04-03T03:41:10;7.83;;;1.30;;
16254;SDS011;8235;52.198;9.904;2023-04-03T03:43:36;3.87;;;1.40;;
16254;SDS011;8235;52.198;9.904;2023-04-03T03:46:03;5.13;;;1.60;;
16254;SDS011;8235;52.198;9.904;2023-04-03T03:48:30;2.67;;;1.40;;
16254;SDS011;8235;52.198;9.904;2023-04-03T03:50:57;3.57;;;1.27;;
16254;SDS011;8235;52.198;9.904;2023-04-03T03:53:24;2.83;;;1.50;;
16254;SDS011;8235;52.198;9.904;2023-04-03T03:55:51;3.83;;;1.63;;
16254;SDS011;8235;52.198;9.904;2023-04-03T03:58:17;4.17;;;1.87;;
16254;SDS011;8235;52.198;9.904;2023-04-03T04:00:44;3.27;;;1.80;;
16254;SDS011;8235;52.198;9.904;2023-04-03T04:03:11;5.13;;;1.33;;
16254;SDS011;8235;52.198;9.904;2023-04-03T04:05:37;4.70;;;1.20;;
16254;SDS011;8235;52.198;9.904;2023-04-03T04:08:06;6.93;;;1.80;;
16254;SDS011;8235;52.198;9.904;2023-04-03T04:10:33;5.43;;;1.97;;
16254;SDS011;8235;52.198;9.904;2023-04-03T04:13:00;2.57;;;1.50;;
16254;SDS011;8235;52.198;9.904;2023-04-03T04:15:26;4.67;;;1.90;;
16254;SDS011;8235;52.198;9.904;2023-04-03T04:17:53;3.67;;;1.40;;
16254;SDS011;8235;52.198;9.904;2023-04-03T04:20:20;3.47;;;1.93;;
16254;SDS011;8235;52.198;9.904;2023-04-03T04:22:47;4.03;;;1.57;;
16254;SDS011;8235;52.198;9.904;2023-04-03T04:25:15;4.90;;;1.60;;
16254;SDS011;8235;52.198;9.904;2023-04-03T04:27:42;8.83;;;1.73;;
16254;SDS011;8235;52.198;9.904;2023-04-03T04:30:09;4.30;;;1.70;;
16254;SDS011;8235;52.198;9.904;2023-04-03T04:32:36;5.20;;;1.70;;
16254;SDS011;8235;52.198;9.904;2023-04-03T04:35:03;5.00;;;1.90;;
16254;SDS011;8235;52.198;9.904;2023-04-03T04:37:30;7.27;;;1.60;;
16254;SDS011;8235;52.198;9.904;2023-04-03T04:39:57;2.40;;;1.70;;
16254;SDS011;8235;52.198;9.904;2023-04-03T04:42:25;7.10;;;2.07;;
16254;SDS011;8235;52.198;9.904;2023-04-03T04:44:52;4.20;;;2.03;;
16254;SDS011;8235;52.198;9.904;2023-04-03T04:47:18;6.63;;;2.13;;
16254;SDS011;8235;52.198;9.904;2023-04-03T04:49:45;4.03;;;2.00;;
16254;SDS011;8235;52.198;9.904;2023-04-03T04:52:12;4.87;;;1.60;;
16254;SDS011;8235;52.198;9.904;2023-04-03T04:54:39;6.17;;;2.53;;
16254;SDS011;8235;52.198;9.904;2023-04-03T04:57:05;6.10;;;1.90;;
16254;SDS011;8235;52.198;9.904;2023-04-03T04:59:33;4.57;;;1.93;;
16254;SDS011;8235;52.198;9.904;2023-04-03T05:02:00;3.30;;;2.00;;
16254;SDS011;8235;52.198;9.904;2023-04-03T05:04:27;4.60;;;2.27;;
16254;SDS011;8235;52.198;9.904;2023-04-03T05:06:53;7.43;;;3.33;;
16254;SDS011;8235;52.198;9.904;2023-04-03T05:09:20;4.90;;;2.00;;
16254;SDS011;8235;52.198;9.904;2023-04-03T05:11:47;3.53;;;2.00;;
16254;SDS011;8235;52.198;9.904;2023-04-03T05:14:13;5.90;;;2.10;;
16254;SDS011;8235;52.198;9.904;2023-04-03T05:16:41;3.97;;;1.90;;
16254;SDS011;8235;52.198;9.904;2023-04-03T05:19:08;4.13;;;1.83;;
16254;SDS011;8235;52.198;9.904;2023-04-03T05:21:34;4.73;;;1.87;;
16254;SDS011;8235;52.198;9.904;2023-04-03T05:24:01;5.47;;;2.00;;
16254;SDS011;8235;52.198;9.904;2023-04-03T05:26:29;6.53;;;2.70;;
16254;SDS011;8235;52.198;9.904;2023-04-03T05:28:56;4.17;;;2.47;;
16254;SDS011;8235;52.198;9.904;2023-04-03T05:31:23;6.50;;;2.10;;
16254;SDS011;8235;52.198;9.904;2023-04-03T05:33:51;5.90;;;2.50;;
16254;SDS011;8235;52.198;9.904;2023-04-03T05:36:18;6.03;;;2.67;;
16254;SDS011;8235;52.198;9.904;2023-04-03T05:38:45;5.83;;;2.40;;
16254;SDS011;8235;52.198;9.904;2023-04-03T05:41:11;5.93;;;2.33;;
16254;SDS011;8235;52.198;9.904;2023-04-03T05:43:38;5.20;;;2.37;;
16254;SDS011;8235;52.198;9.904;2023-04-03T05:46:08;6.70;;;2.30;;
16254;SDS011;8235;52.198;9.904;2023-04-03T05:48:35;5.67;;;2.20;;
16254;SDS011;8235;52.198;9.904;2023-04-03T05:51:04;7.00;;;3.00;;
16254;SDS011;8235;52.198;9.904;2023-04-03T05:53:31;4.87;;;2.40;;
16254;SDS011;8235;52.198;9.904;2023-04-03T05:56:01;3.90;;;1.73;;
16254;SDS011;8235;52.198;9.904;2023-04-03T05:58:28;4.87;;;1.77;;
16254;SDS011;8235;52.198;9.904;2023-04-03T06:00:54;7.03;;;2.47;;
16254;SDS011;8235;52.198;9.904;2023-04-03T06:03:21;8.47;;;2.10;;
16254;SDS011;8235;52.198;9.904;2023-04-03T06:05:47;7.50;;;1.90;;
16254;SDS011;8235;52.198;9.904;2023-04-03T06:08:15;3.67;;;1.60;;
16254;SDS011;8235;52.198;9.904;2023-04-03T06:10:42;3.60;;;1.80;;
16254;SDS011;8235;52.198;9.904;2023-04-03T06:13:08;5.43;;;2.07;;
16254;SDS011;8235;52.198;9.904;2023-04-03T06:15:35;4.33;;;2.40;;
16254;SDS011;8235;52.198;9.904;2023-04-03T06:18:03;4.27;;;2.00;;
16254;SDS011;8235;52.198;9.904;2023-04-03T06:20:30;7.67;;;1.80;;
16254;SDS011;8235;52.198;9.904;2023-04-03T06:22:57;7.00;;;1.63;;
16254;SDS011;8235;52.198;9.904;2023-04-03T06:25:25;5.17;;;1.70;;
16254;SDS011;8235;52.198;9.904;2023-04-03T06:27:51;6.57;;;1.87;;
16254;SDS011;8235;52.198;9.904;2023-04-03T06:30:20;4.53;;;1.80;;
16254;SDS011;8235;52.198;9.904;2023-04-03T06:32:47;5.50;;;1.63;;
16254;SDS011;8235;52.198;9.904;2023-04-03T06:35:14;4.83;;;1.90;;
16254;SDS011;8235;52.198;9.904;2023-04-03T06:37:41;5.07;;;1.90;;
16254;SDS011;8235;52.198;9.904;2023-04-03T06:40:10;5.07;;;2.37;;
16254;SDS011;8235;52.198;9.904;2023-04-03T06:42:47;5.77;;;2.10;;
16254;SDS011;8235;52.198;9.904;2023-04-03T06:45:14;18.03;;;2.83;;
16254;SDS011;8235;52.198;9.904;2023-04-03T06:47:42;5.33;;;2.03;;
16254;SDS011;8235;52.198;9.904;2023-04-03T06:50:10;4.80;;;1.83;;
16254;SDS011;8235;52.198;9.904;2023-04-03T06:52:39;4.03;;;1.70;;
16254;SDS011;8235;52.198;9.904;2023-04-03T06:55:07;7.33;;;2.57;;
16254;SDS011;8235;52.198;9.904;2023-04-03T06:57:35;6.07;;;1.97;;
16254;SDS011;8235;52.198;9.904;2023-04-03T07:00:04;4.60;;;1.83;;
16254;SDS011;8235;52.198;9.904;2023-04-03T07:02:31;5.23;;;1.80;;
16254;SDS011;8235;52.198;9.904;2023-04-03T07:04:58;4.57;;;2.10;;
16254;SDS011;8235;52.198;9.904;2023-04-03T07:07:25;6.73;;;1.90;;
16254;SDS011;8235;52.198;9.904;2023-04-03T07:09:51;4.10;;;2.43;;
16254;SDS011;8235;52.198;9.904;2023-04-03T07:12:18;8.27;;;1.83;;
16254;SDS011;8235;52.198;9.904;2023-04-03T07:14:44;5.23;;;1.57;;
16254;SDS011;8235;52.198;9.904;2023-04-03T07:17:12;3.27;;;1.70;;
16254;SDS011;8235;52.198;9.904;2023-04-03T07:19:38;6.10;;;2.73;;
16254;SDS011;8235;52.198;9.904;2023-04-03T07:22:05;7.67;;;1.90;;
16254;SDS011;8235;52.198;9.904;2023-04-03T07:24:31;3.10;;;1.80;;
16254;SDS011;8235;52.198;9.904;2023-04-03T07:26:58;5.63;;;1.50;;
16254;SDS011;8235;52.198;9.904;2023-04-03T07:29:24;5.60;;;1.90;;
16254;SDS011;8235;52.198;9.904;2023-04-03T07:31:51;3.63;;;1.60;;
16254;SDS011;8235;52.198;9.904;2023-04-03T07:34:18;4.27;;;1.73;;
16254;SDS011;8235;52.198;9.904;2023-04-03T07:36:45;4.23;;;1.60;;
16254;SDS011;8235;52.198;9.904;2023-04-03T07:39:11;4.40;;;1.93;;
16254;SDS011;8235;52.198;9.904;2023-04-03T07:41:38;5.97;;;1.73;;
16254;SDS011;8235;52.198;9.904;2023-04-03T07:44:04;3.73;;;1.83;;
16254;SDS011;8235;52.198;9.904;2023-04-03T07:46:31;4.73;;;1.60;;
16254;SDS011;8235;52.198;9.904;2023-04-03T07:48:58;5.87;;;1.70;;
16254;SDS011;8235;52.198;9.904;2023-04-03T07:51:26;4.40;;;1.87;;
16254;SDS011;8235;52.198;9.904;2023-04-03T07:53:53;6.30;;;1.77;;
16254;SDS011;8235;52.198;9.904;2023-04-03T07:56:19;4.33;;;1.60;;
16254;SDS011;8235;52.198;9.904;2023-04-03T07:58:46;5.73;;;1.70;;
16254;SDS011;8235;52.198;9.904;2023-04-03T08:01:12;6.87;;;1.50;;
16254;SDS011;8235;52.198;9.904;2023-04-03T08:03:39;3.33;;;1.30;;
16254;SDS011;8235;52.198;9.904;2023-04-03T08:06:06;5.43;;;1.90;;
16254;SDS011;8235;52.198;9.904;2023-04-03T08:08:35;3.47;;;1.50;;
16254;SDS011;8235;52.198;9.904;2023-04-03T08:11:02;5.10;;;1.20;;
16254;SDS011;8235;52.198;9.904;2023-04-03T08:13:30;5.67;;;1.63;;
16254;SDS011;8235;52.198;9.904;2023-04-03T08:15:57;5.50;;;1.60;;
16254;SDS011;8235;52.198;9.904;2023-04-03T08:18:24;6.40;;;1.67;;
16254;SDS011;8235;52.198;9.904;2023-04-03T08:20:51;2.70;;;1.37;;
16254;SDS011;8235;52.198;9.904;2023-04-03T08:23:18;2.43;;;1.27;;
16254;SDS011;8235;52.198;9.904;2023-04-03T08:25:46;2.90;;;1.20;;
16254;SDS011;8235;52.198;9.904;2023-04-03T08:28:12;5.97;;;1.97;;
16254;SDS011;8235;52.198;9.904;2023-04-03T08:30:39;1.80;;;1.03;;
16254;SDS011;8235;52.198;9.904;2023-04-03T08:33:07;2.13;;;1.13;;
16254;SDS011;8235;52.198;9.904;2023-04-03T08:35:37;5.27;;;1.83;;
16254;SDS011;8235;52.198;9.904;2023-04-03T08:38:05;2.67;;;1.13;;
16254;SDS011;8235;52.198;9.904;2023-04-03T08:40:32;3.83;;;1.40;;
16254;SDS011;8235;52.198;9.904;2023-04-03T08:43:03;4.40;;;1.20;;
16254;SDS011;8235;52.198;9.904;2023-04-03T08:45:43;4.80;;;1.10;;
16254;SDS011;8235;52.198;9.904;2023-04-03T08:48:13;3.73;;;1.07;;
16254;SDS011;8235;52.198;9.904;2023-04-03T08:50:43;4.90;;;1.13;;
16254;SDS011;8235;52.198;9.904;2023-04-03T08:53:13;3.17;;;1.17;;
16254;SDS011;8235;52.198;9.904;2023-04-03T08:55:42;3.27;;;0.87;;
16254;SDS011;8235;52.198;9.904;2023-04-03T08:58:14;3.30;;;1.00;;
16254;SDS011;8235;52.198;9.904;2023-04-03T09:00:43;3.87;;;1.00;;
16254;SDS011;8235;52.198;9.904;2023-04-03T09:03:13;2.40;;;0.63;;
16254;SDS011;8235;52.198;9.904;2023-04-03T09:05:41;3.03;;;0.73;;
16254;SDS011;8235;52.198;9.904;2023-04-03T09:08:14;2.30;;;0.80;;
16254;SDS011;8235;52.198;9.904;2023-04-03T09:10:48;2.13;;;1.17;;
16254;SDS011;8235;52.198;9.904;2023-04-03T09:13:22;2.03;;;0.77;;
16254;SDS011;8235;52.198;9.904;2023-04-03T09:15:54;3.40;;;0.73;;
16254;SDS011;8235;52.198;9.904;2023-04-03T09:18:23;1.87;;;0.60;;
16254;SDS011;8235;52.198;9.904;2023-04-03T09:20:56;1.93;;;0.80;;
16254;SDS011;8235;52.198;9.904;2023-04-03T09:23:30;1.83;;;0.73;;
16254;SDS011;8235;52.198;9.904;2023-04-03T09:26:01;4.37;;;0.73;;
16254;SDS011;8235;52.198;9.904;2023-04-03T09:28:33;2.93;;;0.90;;
16254;SDS011;8235;52.198;9.904;2023-04-03T09:31:05;2.47;;;0.97;;
16254;SDS011;8235;52.198;9.904;2023-04-03T09:33:44;2.57;;;0.70;;
16254;SDS011;8235;52.198;9.904;2023-04-03T09:36:11;4.37;;;1.07;;
16254;SDS011;8235;52.198;9.904;2023-04-03T09:38:38;1.40;;;0.70;;
16254;SDS011;8235;52.198;9.904;2023-04-03T09:41:06;2.70;;;0.70;;
16254;SDS011;8235;52.198;9.904;2023-04-03T09:43:40;2.90;;;0.87;;
16254;SDS011;8235;52.198;9.904;2023-04-03T09:46:24;2.57;;;0.87;;
16254;SDS011;8235;52.198;9.904;2023-04-03T09:48:55;2.13;;;0.70;;
16254;SDS011;8235;52.198;9.904;2023-04-03T09:51:25;2.70;;;0.90;;
16254;SDS011;8235;52.198;9.904;2023-04-03T09:53:53;1.77;;;0.80;;
16254;SDS011;8235;52.198;9.904;2023-04-03T09:56:22;3.17;;;1.00;;
16254;SDS011;8235;52.198;9.904;2023-04-03T09:58:52;1.30;;;0.60;;
16254;SDS011;8235;52.198;9.904;2023-04-03T10:01:34;4.23;;;0.77;;
16254;SDS011;8235;52.198;9.904;2023-04-03T10:04:03;2.00;;;0.80;;
16254;SDS011;8235;52.198;9.904;2023-04-03T10:06:36;2.97;;;1.10;;
16254;SDS011;8235;52.198;9.904;2023-04-03T10:09:12;2.60;;;0.80;;
16254;SDS011;8235;52.198;9.904;2023-04-03T10:11:56;2.47;;;0.80;;
16254;SDS011;8235;52.198;9.904;2023-04-03T10:14:26;4.07;;;0.90;;
16254;SDS011;8235;52.198;9.904;2023-04-03T10:16:57;1.40;;;0.47;;
16254;SDS011;8235;52.198;9.904;2023-04-03T10:19:33;1.90;;;0.63;;
16254;SDS011;8235;52.198;9.904;2023-04-03T10:22:03;1.77;;;0.50;;
16254;SDS011;8235;52.198;9.904;2023-04-03T10:24:42;1.93;;;0.70;;
16254;SDS011;8235;52.198;9.904;2023-04-03T10:27:16;2.70;;;0.83;;
16254;SDS011;8235;52.198;9.904;2023-04-03T10:29:53;2.07;;;1.10;;
16254;SDS011;8235;52.198;9.904;2023-04-03T10:32:28;1.97;;;0.50;;
16254;SDS011;8235;52.198;9.904;2023-04-03T10:35:08;1.73;;;0.60;;
16254;SDS011;8235;52.198;9.904;2023-04-03T10:37:46;1.97;;;0.70;;
16254;SDS011;8235;52.198;9.904;2023-04-03T10:40:28;1.23;;;0.50;;
16254;SDS011;8235;52.198;9.904;2023-04-03T10:43:02;1.73;;;0.60;;
16254;SDS011;8235;52.198;9.904;2023-04-03T10:45:43;3.50;;;0.60;;
16254;SDS011;8235;52.198;9.904;2023-04-03T10:48:29;2.33;;;0.70;;
16254;SDS011;8235;52.198;9.904;2023-04-03T10:51:09;1.23;;;0.53;;
16254;SDS011;8235;52.198;9.904;2023-04-03T10:53:44;2.17;;;0.70;;
16254;SDS011;8235;52.198;9.904;2023-04-03T10:56:22;2.63;;;0.70;;
16254;SDS011;8235;52.198;9.904;2023-04-03T10:58:56;2.20;;;0.67;;
16254;SDS011;8235;52.198;9.904;2023-04-03T11:01:42;1.80;;;0.90;;
16254;SDS011;8235;52.198;9.904;2023-04-03T11:04:11;2.30;;;0.60;;
16254;SDS011;8235;52.198;9.904;2023-04-03T11:06:39;2.03;;;0.93;;
16254;SDS011;8235;52.198;9.904;2023-04-03T11:09:11;3.50;;;0.80;;
16254;SDS011;8235;52.198;9.904;2023-04-03T11:11:45;3.17;;;1.40;;
16254;SDS011;8235;52.198;9.904;2023-04-03T11:14:14;1.50;;;0.67;;
16254;SDS011;8235;52.198;9.904;2023-04-03T11:16:50;6.90;;;1.40;;
16254;SDS011;8235;52.198;9.904;2023-04-03T11:19:27;1.90;;;0.80;;
16254;SDS011;8235;52.198;9.904;2023-04-03T11:22:02;2.17;;;0.60;;
16254;SDS011;8235;52.198;9.904;2023-04-03T11:24:34;1.80;;;0.70;;
16254;SDS011;8235;52.198;9.904;2023-04-03T11:27:05;4.30;;;1.07;;
16254;SDS011;8235;52.198;9.904;2023-04-03T11:29:36;2.07;;;0.57;;
16254;SDS011;8235;52.198;9.904;2023-04-03T11:32:11;1.77;;;0.77;;
16254;SDS011;8235;52.198;9.904;2023-04-03T11:34:53;1.83;;;0.60;;
16254;SDS011;8235;52.198;9.904;2023-04-03T11:37:25;2.23;;;0.60;;
16254;SDS011;8235;52.198;9.904;2023-04-03T11:39:58;1.97;;;0.70;;
16254;SDS011;8235;52.198;9.904;2023-04-03T11:42:30;2.70;;;0.70;;
16254;SDS011;8235;52.198;9.904;2023-04-03T11:45:16;3.53;;;0.70;;
16254;SDS011;8235;52.198;9.904;2023-04-03T11:47:53;5.50;;;0.90;;
16254;SDS011;8235;52.198;9.904;2023-04-03T11:50:30;2.90;;;0.63;;
16254;SDS011;8235;52.198;9.904;2023-04-03T11:55:58;3.27;;;0.90;;
16254;SDS011;8235;52.198;9.904;2023-04-03T11:58:31;1.83;;;0.60;;
16254;SDS011;8235;52.198;9.904;2023-04-03T12:01:08;2.60;;;0.70;;
16254;SDS011;8235;52.198;9.904;2023-04-03T12:12:29;2.80;;;0.60;;
16254;SDS011;8235;52.198;9.904;2023-04-03T12:18:13;1.30;;;0.63;;
16254;SDS011;8235;52.198;9.904;2023-04-03T12:20:58;1.20;;;0.70;;
16254;SDS011;8235;52.198;9.904;2023-04-03T12:23:30;3.30;;;0.77;;
16254;SDS011;8235;52.198;9.904;2023-04-03T12:26:03;3.60;;;0.80;;
16254;SDS011;8235;52.198;9.904;2023-04-03T12:28:46;1.83;;;1.00;;
16254;SDS011;8235;52.198;9.904;2023-04-03T12:31:17;2.50;;;0.90;;
16254;SDS011;8235;52.198;9.904;2023-04-03T12:33:52;0.73;;;0.60;;
16254;SDS011;8235;52.198;9.904;2023-04-03T12:36:35;3.07;;;0.90;;
16254;SDS011;8235;52.198;9.904;2023-04-03T12:39:27;2.23;;;0.67;;
16254;SDS011;8235;52.198;9.904;2023-04-03T12:42:17;1.93;;;0.60;;
16254;SDS011;8235;52.198;9.904;2023-04-03T12:44:57;3.23;;;0.67;;
16254;SDS011;8235;52.198;9.904;2023-04-03T12:47:29;1.87;;;0.50;;
16254;SDS011;8235;52.198;9.904;2023-04-03T12:50:01;1.27;;;0.63;;
16254;SDS011;8235;52.198;9.904;2023-04-03T12:52:33;2.63;;;0.87;;
16254;SDS011;8235;52.198;9.904;2023-04-03T12:55:11;3.23;;;0.60;;
16254;SDS011;8235;52.198;9.904;2023-04-03T12:57:40;2.50;;;0.80;;
16254;SDS011;8235;52.198;9.904;2023-04-03T13:00:27;1.57;;;0.70;;
16254;SDS011;8235;52.198;9.904;2023-04-03T13:02:57;2.13;;;0.60;;
16254;SDS011;8235;52.198;9.904;2023-04-03T13:08:27;2.50;;;0.87;;
16254;SDS011;8235;52.198;9.904;2023-04-03T13:10:55;4.80;;;0.80;;
16254;SDS011;8235;52.198;9.904;2023-04-03T13:13:24;2.57;;;0.70;;
16254;SDS011;8235;52.198;9.904;2023-04-03T13:15:51;1.83;;;0.70;;
16254;SDS011;8235;52.198;9.904;2023-04-03T13:18:23;2.37;;;0.70;;
16254;SDS011;8235;52.198;9.904;2023-04-03T13:20:51;3.83;;;1.00;;
16254;SDS011;8235;52.198;9.904;2023-04-03T13:23:19;3.37;;;0.90;;
16254;SDS011;8235;52.198;9.904;2023-04-03T13:25:49;1.40;;;0.80;;
16254;SDS011;8235;52.198;9.904;2023-04-03T13:28:18;2.83;;;1.20;;
16254;SDS011;8235;52.198;9.904;2023-04-03T13:31:00;2.07;;;0.87;;
16254;SDS011;8235;52.198;9.904;2023-04-03T13:33:31;2.60;;;0.80;;
16254;SDS011;8235;52.198;9.904;2023-04-03T13:36:03;2.67;;;0.93;;
16254;SDS011;8235;52.198;9.904;2023-04-03T13:38:32;2.00;;;0.70;;
16254;SDS011;8235;52.198;9.904;2023-04-03T13:41:03;3.60;;;1.30;;
16254;SDS011;8235;52.198;9.904;2023-04-03T13:43:33;1.30;;;0.67;;
16254;SDS011;8235;52.198;9.904;2023-04-03T13:46:20;3.67;;;1.00;;
16254;SDS011;8235;52.198;9.904;2023-04-03T13:48:50;3.93;;;1.37;;
16254;SDS011;8235;52.198;9.904;2023-04-03T13:51:19;2.10;;;0.83;;
16254;SDS011;8235;52.198;9.904;2023-04-03T13:53:50;2.07;;;0.67;;
16254;SDS011;8235;52.198;9.904;2023-04-03T13:56:26;1.77;;;0.70;;
16254;SDS011;8235;52.198;9.904;2023-04-03T13:58:58;1.87;;;1.07;;
16254;SDS011;8235;52.198;9.904;2023-04-03T14:01:33;2.27;;;1.00;;
16254;SDS011;8235;52.198;9.904;2023-04-03T14:04:11;1.80;;;0.87;;
16254;SDS011;8235;52.198;9.904;2023-04-03T14:06:40;1.80;;;0.63;;
16254;SDS011;8235;52.198;9.904;2023-04-03T14:09:07;1.87;;;0.90;;
16254;SDS011;8235;52.198;9.904;2023-04-03T14:11:35;1.67;;;0.90;;
16254;SDS011;8235;52.198;9.904;2023-04-03T14:14:02;0.77;;;0.43;;
16254;SDS011;8235;52.198;9.904;2023-04-03T14:16:33;2.57;;;0.60;;
16254;SDS011;8235;52.198;9.904;2023-04-03T14:19:04;2.30;;;1.00;;
16254;SDS011;8235;52.198;9.904;2023-04-03T14:21:31;0.70;;;0.70;;
16254;SDS011;8235;52.198;9.904;2023-04-03T14:23:57;1.53;;;0.80;;
16254;SDS011;8235;52.198;9.904;2023-04-03T14:26:24;0.80;;;0.63;;
16254;SDS011;8235;52.198;9.904;2023-04-03T14:28:53;1.43;;;0.77;;
16254;SDS011;8235;52.198;9.904;2023-04-03T14:31:22;1.00;;;0.60;;
16254;SDS011;8235;52.198;9.904;2023-04-03T14:33:49;1.03;;;0.63;;
16254;SDS011;8235;52.198;9.904;2023-04-03T14:36:16;1.93;;;0.60;;
16254;SDS011;8235;52.198;9.904;2023-04-03T14:38:45;3.93;;;0.80;;
16254;SDS011;8235;52.198;9.904;2023-04-03T14:41:13;1.53;;;0.77;;
16254;SDS011;8235;52.198;9.904;2023-04-03T14:43:41;3.03;;;0.90;;
16254;SDS011;8235;52.198;9.904;2023-04-03T14:46:12;1.60;;;0.80;;
16254;SDS011;8235;52.198;9.904;2023-04-03T14:48:40;1.67;;;0.77;;
16254;SDS011;8235;52.198;9.904;2023-04-03T14:51:08;2.40;;;0.70;;
16254;SDS011;8235;52.198;9.904;2023-04-03T14:53:36;3.30;;;1.20;;
16254;SDS011;8235;52.198;9.904;2023-04-03T14:56:04;1.97;;;0.80;;
16254;SDS011;8235;52.198;9.904;2023-04-03T14:58:36;1.80;;;0.90;;
16254;SDS011;8235;52.198;9.904;2023-04-03T15:01:03;2.57;;;0.80;;
16254;SDS011;8235;52.198;9.904;2023-04-03T15:03:31;1.87;;;0.80;;
16254;SDS011;8235;52.198;9.904;2023-04-03T15:05:57;3.60;;;0.80;;
16254;SDS011;8235;52.198;9.904;2023-04-03T15:08:24;1.93;;;0.83;;
16254;SDS011;8235;52.198;9.904;2023-04-03T15:10:54;2.77;;;0.83;;
16254;SDS011;8235;52.198;9.904;2023-04-03T15:13:24;2.53;;;0.80;;
16254;SDS011;8235;52.198;9.904;2023-04-03T15:15:50;7.30;;;0.90;;
16254;SDS011;8235;52.198;9.904;2023-04-03T15:18:18;2.63;;;0.80;;
16254;SDS011;8235;52.198;9.904;2023-04-03T15:20:48;2.77;;;1.17;;
16254;SDS011;8235;52.198;9.904;2023-04-03T15:23:16;3.47;;;0.70;;
16254;SDS011;8235;52.198;9.904;2023-04-03T15:25:43;1.10;;;0.60;;
16254;SDS011;8235;52.198;9.904;2023-04-03T15:28:13;1.30;;;0.87;;
16254;SDS011;8235;52.198;9.904;2023-04-03T15:30:45;4.07;;;1.00;;
16254;SDS011;8235;52.198;9.904;2023-04-03T15:33:11;2.13;;;0.80;;